sensor_id;sensor_type;location;lat;lon;timestamp;P1;durP1;ratioP1;P2;durP2;ratioP2
44276;SDS011;29973;43.742;1.236;2023-06-14T00:02:11;0.10;;;0.10;;
44276;SDS011;29973;43.742;1.236;2023-06-14T00:04:37;0.10;;;0.10;;
44276;SDS011;29973;43.742;1.236;2023-06-14T00:07:04;0.10;;;0.10;;
44276;SDS011;29973;43.742;1.236;2023-06-14T00:09:34;0.10;;;0.10;;
44276;SDS011;29973;43.742;1.236;2023-06-14T00:12:00;0.10;;;0.10;;
44276;SDS011;29973;43.742;1.236;2023-06-14T00:14:26;0.10;;;0.10;;
44276;SDS011;29973;43.742;1.236;2023-06-14T00:16:51;0.20;;;0.20;;
44276;SDS011;29973;43.742;1.236;2023-06-14T00:19:18;0.10;;;0.10;;
44276;SDS011;29973;43.742;1.236;2023-06-14T00:21:44;0.10;;;0.10;;
44276;SDS011;29973;43.742;1.236;2023-06-14T00:24:11;0.08;;;0.08;;
44276;SDS011;29973;43.742;1.236;2023-06-14T00:26:36;0.00;;;0.00;;
44276;SDS011;29973;43.742;1.236;2023-06-14T00:29:02;0.00;;;0.00;;
44276;SDS011;29973;43.742;1.236;2023-06-14T00:31:28;0.10;;;0.10;;
44276;SDS011;29973;43.742;1.236;2023-06-14T00:33:54;0.30;;;0.30;;
44276;SDS011;29973;43.742;1.236;2023-06-14T00:36:19;0.00;;;0.00;;
44276;SDS011;29973;43.742;1.236;2023-06-14T00:38:45;0.13;;;0.13;;
44276;SDS011;29973;43.742;1.236;2023-06-14T00:41:11;0.10;;;0.10;;
44276;SDS011;29973;43.742;1.236;2023-06-14T00:43:37;0.10;;;0.10;;
44276;SDS011;29973;43.742;1.236;2023-06-14T00:46:02;0.10;;;0.10;;
44276;SDS011;29973;43.742;1.236;2023-06-14T00:48:28;0.10;;;0.10;;
44276;SDS011;29973;43.742;1.236;2023-06-14T00:50:56;0.10;;;0.10;;
44276;SDS011;29973;43.742;1.236;2023-06-14T00:53:23;0.10;;;0.10;;
44276;SDS011;29973;43.742;1.236;2023-06-14T00:55:50;0.08;;;0.08;;
44276;SDS011;29973;43.742;1.236;2023-06-14T00:58:15;0.20;;;0.20;;
44276;SDS011;29973;43.742;1.236;2023-06-14T01:00:42;0.10;;;0.10;;
44276;SDS011;29973;43.742;1.236;2023-06-14T01:03:07;0.13;;;0.13;;
44276;SDS011;29973;43.742;1.236;2023-06-14T01:05:37;0.10;;;0.10;;
44276;SDS011;29973;43.742;1.236;2023-06-14T01:10:51;0.10;;;0.10;;
44276;SDS011;29973;43.742;1.236;2023-06-14T01:13:36;0.00;;;0.00;;
44276;SDS011;29973;43.742;1.236;2023-06-14T01:18:31;0.10;;;0.10;;
44276;SDS011;29973;43.742;1.236;2023-06-14T01:20:58;0.10;;;0.10;;
44276;SDS011;29973;43.742;1.236;2023-06-14T01:23:24;0.10;;;0.10;;
44276;SDS011;29973;43.742;1.236;2023-06-14T01:25:57;0.30;;;0.30;;
44276;SDS011;29973;43.742;1.236;2023-06-14T01:28:24;0.20;;;0.20;;
44276;SDS011;29973;43.742;1.236;2023-06-14T01:30:52;0.10;;;0.10;;
44276;SDS011;29973;43.742;1.236;2023-06-14T01:33:23;0.10;;;0.10;;
44276;SDS011;29973;43.742;1.236;2023-06-14T01:35:51;0.10;;;0.10;;
44276;SDS011;29973;43.742;1.236;2023-06-14T01:38:19;0.10;;;0.10;;
44276;SDS011;29973;43.742;1.236;2023-06-14T01:40:55;0.63;;;0.63;;
44276;SDS011;29973;43.742;1.236;2023-06-14T01:43:23;0.10;;;0.10;;
44276;SDS011;29973;43.742;1.236;2023-06-14T01:45:49;0.10;;;0.10;;
44276;SDS011;29973;43.742;1.236;2023-06-14T01:48:16;0.08;;;0.08;;
44276;SDS011;29973;43.742;1.236;2023-06-14T01:50:42;3.60;;;2.17;;
44276;SDS011;29973;43.742;1.236;2023-06-14T01:53:08;0.20;;;0.20;;
44276;SDS011;29973;43.742;1.236;2023-06-14T01:55:35;0.38;;;0.38;;
44276;SDS011;29973;43.742;1.236;2023-06-14T01:58:04;0.10;;;0.10;;
44276;SDS011;29973;43.742;1.236;2023-06-14T02:00:30;0.10;;;0.10;;
44276;SDS011;29973;43.742;1.236;2023-06-14T02:02:55;0.10;;;0.10;;
44276;SDS011;29973;43.742;1.236;2023-06-14T02:05:22;0.10;;;0.10;;
44276;SDS011;29973;43.742;1.236;2023-06-14T02:07:49;0.10;;;0.10;;
44276;SDS011;29973;43.742;1.236;2023-06-14T02:10:15;0.10;;;0.10;;
44276;SDS011;29973;43.742;1.236;2023-06-14T02:12:42;0.10;;;0.10;;
44276;SDS011;29973;43.742;1.236;2023-06-14T02:15:08;0.00;;;0.00;;
44276;SDS011;29973;43.742;1.236;2023-06-14T02:17:51;0.03;;;0.03;;
44276;SDS011;29973;43.742;1.236;2023-06-14T02:20:17;0.10;;;0.10;;
44276;SDS011;29973;43.742;1.236;2023-06-14T02:22:43;0.10;;;0.10;;
44276;SDS011;29973;43.742;1.236;2023-06-14T02:25:09;0.00;;;0.00;;
44276;SDS011;29973;43.742;1.236;2023-06-14T02:27:35;0.10;;;0.10;;
44276;SDS011;29973;43.742;1.236;2023-06-14T02:30:00;0.10;;;0.10;;
44276;SDS011;29973;43.742;1.236;2023-06-14T02:32:27;0.10;;;0.10;;
44276;SDS011;29973;43.742;1.236;2023-06-14T02:34:55;0.10;;;0.10;;
44276;SDS011;29973;43.742;1.236;2023-06-14T02:37:22;0.10;;;0.10;;
44276;SDS011;29973;43.742;1.236;2023-06-14T02:39:48;0.20;;;0.20;;
44276;SDS011;29973;43.742;1.236;2023-06-14T02:42:13;0.20;;;0.20;;
44276;SDS011;29973;43.742;1.236;2023-06-14T02:44:39;0.20;;;0.20;;
44276;SDS011;29973;43.742;1.236;2023-06-14T02:47:05;0.30;;;0.30;;
44276;SDS011;29973;43.742;1.236;2023-06-14T02:49:31;0.10;;;0.10;;
44276;SDS011;29973;43.742;1.236;2023-06-14T02:51:57;0.10;;;0.10;;
44276;SDS011;29973;43.742;1.236;2023-06-14T02:54:23;0.10;;;0.10;;
44276;SDS011;29973;43.742;1.236;2023-06-14T02:56:48;0.10;;;0.10;;
44276;SDS011;29973;43.742;1.236;2023-06-14T02:59:15;0.10;;;0.10;;
44276;SDS011;29973;43.742;1.236;2023-06-14T03:01:42;0.08;;;0.08;;
44276;SDS011;29973;43.742;1.236;2023-06-14T03:04:08;0.10;;;0.10;;
44276;SDS011;29973;43.742;1.236;2023-06-14T03:06:34;0.08;;;0.08;;
44276;SDS011;29973;43.742;1.236;2023-06-14T03:09:00;0.10;;;0.10;;
44276;SDS011;29973;43.742;1.236;2023-06-14T03:11:29;0.10;;;0.10;;
44276;SDS011;29973;43.742;1.236;2023-06-14T03:13:55;0.10;;;0.10;;
44276;SDS011;29973;43.742;1.236;2023-06-14T03:16:21;0.10;;;0.10;;
44276;SDS011;29973;43.742;1.236;2023-06-14T03:18:49;0.10;;;0.10;;
44276;SDS011;29973;43.742;1.236;2023-06-14T03:21:16;0.10;;;0.10;;
44276;SDS011;29973;43.742;1.236;2023-06-14T03:23:42;0.10;;;0.10;;
44276;SDS011;29973;43.742;1.236;2023-06-14T03:26:09;0.10;;;0.10;;
44276;SDS011;29973;43.742;1.236;2023-06-14T03:28:38;0.10;;;0.10;;
44276;SDS011;29973;43.742;1.236;2023-06-14T03:31:03;0.10;;;0.10;;
44276;SDS011;29973;43.742;1.236;2023-06-14T03:33:29;0.10;;;0.10;;
44276;SDS011;29973;43.742;1.236;2023-06-14T03:35:55;0.10;;;0.10;;
44276;SDS011;29973;43.742;1.236;2023-06-14T03:38:21;0.10;;;0.10;;
44276;SDS011;29973;43.742;1.236;2023-06-14T03:40:47;0.10;;;0.10;;
44276;SDS011;29973;43.742;1.236;2023-06-14T03:43:13;0.10;;;0.10;;
44276;SDS011;29973;43.742;1.236;2023-06-14T03:45:39;0.13;;;0.13;;
44276;SDS011;29973;43.742;1.236;2023-06-14T03:48:05;0.10;;;0.10;;
44276;SDS011;29973;43.742;1.236;2023-06-14T03:50:32;0.10;;;0.10;;
44276;SDS011;29973;43.742;1.236;2023-06-14T03:52:58;0.10;;;0.10;;
44276;SDS011;29973;43.742;1.236;2023-06-14T03:55:23;0.10;;;0.10;;
44276;SDS011;29973;43.742;1.236;2023-06-14T03:57:52;0.10;;;0.10;;
44276;SDS011;29973;43.742;1.236;2023-06-14T04:00:18;0.10;;;0.10;;
44276;SDS011;29973;43.742;1.236;2023-06-14T04:02:44;0.10;;;0.10;;
44276;SDS011;29973;43.742;1.236;2023-06-14T04:05:10;0.10;;;0.10;;
44276;SDS011;29973;43.742;1.236;2023-06-14T04:07:36;0.20;;;0.20;;
44276;SDS011;29973;43.742;1.236;2023-06-14T04:10:07;0.10;;;0.10;;
44276;SDS011;29973;43.742;1.236;2023-06-14T04:12:33;0.17;;;0.17;;
44276;SDS011;29973;43.742;1.236;2023-06-14T04:14:59;0.10;;;0.10;;
44276;SDS011;29973;43.742;1.236;2023-06-14T04:17:25;0.30;;;0.30;;
44276;SDS011;29973;43.742;1.236;2023-06-14T04:19:51;0.13;;;0.13;;
44276;SDS011;29973;43.742;1.236;2023-06-14T04:22:17;0.20;;;0.20;;
44276;SDS011;29973;43.742;1.236;2023-06-14T04:24:43;0.10;;;0.10;;
44276;SDS011;29973;43.742;1.236;2023-06-14T04:27:10;0.10;;;0.10;;
44276;SDS011;29973;43.742;1.236;2023-06-14T04:29:35;0.10;;;0.10;;
44276;SDS011;29973;43.742;1.236;2023-06-14T04:32:01;0.20;;;0.20;;
44276;SDS011;29973;43.742;1.236;2023-06-14T04:34:27;0.22;;;0.22;;
44276;SDS011;29973;43.742;1.236;2023-06-14T04:36:59;0.10;;;0.10;;
44276;SDS011;29973;43.742;1.236;2023-06-14T04:39:26;0.00;;;0.00;;
44276;SDS011;29973;43.742;1.236;2023-06-14T04:41:52;0.10;;;0.10;;
44276;SDS011;29973;43.742;1.236;2023-06-14T04:44:22;0.10;;;0.10;;
44276;SDS011;29973;43.742;1.236;2023-06-14T04:46:55;0.10;;;0.10;;
44276;SDS011;29973;43.742;1.236;2023-06-14T04:49:23;0.17;;;0.17;;
44276;SDS011;29973;43.742;1.236;2023-06-14T04:51:49;0.10;;;0.10;;
44276;SDS011;29973;43.742;1.236;2023-06-14T04:54:22;0.32;;;0.32;;
44276;SDS011;29973;43.742;1.236;2023-06-14T04:56:50;0.05;;;0.05;;
44276;SDS011;29973;43.742;1.236;2023-06-14T04:59:16;0.10;;;0.10;;
44276;SDS011;29973;43.742;1.236;2023-06-14T05:01:42;0.10;;;0.10;;
44276;SDS011;29973;43.742;1.236;2023-06-14T05:04:15;0.10;;;0.10;;
44276;SDS011;29973;43.742;1.236;2023-06-14T05:06:41;0.38;;;0.38;;
44276;SDS011;29973;43.742;1.236;2023-06-14T05:09:10;0.00;;;0.00;;
44276;SDS011;29973;43.742;1.236;2023-06-14T05:11:36;0.10;;;0.10;;
44276;SDS011;29973;43.742;1.236;2023-06-14T05:14:01;0.10;;;0.10;;
44276;SDS011;29973;43.742;1.236;2023-06-14T05:16:27;0.20;;;0.20;;
44276;SDS011;29973;43.742;1.236;2023-06-14T05:18:54;0.38;;;0.38;;
44276;SDS011;29973;43.742;1.236;2023-06-14T05:21:20;0.95;;;0.95;;
44276;SDS011;29973;43.742;1.236;2023-06-14T05:23:46;0.30;;;0.30;;
44276;SDS011;29973;43.742;1.236;2023-06-14T05:26:12;0.10;;;0.10;;
44276;SDS011;29973;43.742;1.236;2023-06-14T05:28:38;0.10;;;0.10;;
44276;SDS011;29973;43.742;1.236;2023-06-14T05:31:04;0.10;;;0.10;;
44276;SDS011;29973;43.742;1.236;2023-06-14T05:33:30;0.10;;;0.10;;
44276;SDS011;29973;43.742;1.236;2023-06-14T05:35:55;0.10;;;0.10;;
44276;SDS011;29973;43.742;1.236;2023-06-14T05:38:21;0.40;;;0.40;;
44276;SDS011;29973;43.742;1.236;2023-06-14T05:40:47;0.25;;;0.25;;
44276;SDS011;29973;43.742;1.236;2023-06-14T05:43:13;0.10;;;0.10;;
44276;SDS011;29973;43.742;1.236;2023-06-14T05:45:38;0.20;;;0.20;;
44276;SDS011;29973;43.742;1.236;2023-06-14T05:48:04;0.20;;;0.20;;
44276;SDS011;29973;43.742;1.236;2023-06-14T05:50:30;0.10;;;0.10;;
44276;SDS011;29973;43.742;1.236;2023-06-14T05:52:56;0.10;;;0.10;;
44276;SDS011;29973;43.742;1.236;2023-06-14T05:55:21;0.10;;;0.10;;
44276;SDS011;29973;43.742;1.236;2023-06-14T05:57:47;0.10;;;0.10;;
44276;SDS011;29973;43.742;1.236;2023-06-14T06:00:13;0.10;;;0.10;;
44276;SDS011;29973;43.742;1.236;2023-06-14T06:02:43;14.07;;;6.63;;
44276;SDS011;29973;43.742;1.236;2023-06-14T06:05:10;16.17;;;6.60;;
44276;SDS011;29973;43.742;1.236;2023-06-14T06:07:37;15.43;;;7.53;;
44276;SDS011;29973;43.742;1.236;2023-06-14T06:10:05;21.20;;;7.07;;
44276;SDS011;29973;43.742;1.236;2023-06-14T06:12:31;12.77;;;7.05;;
44276;SDS011;29973;43.742;1.236;2023-06-14T06:14:58;19.67;;;7.68;;
44276;SDS011;29973;43.742;1.236;2023-06-14T06:17:25;16.92;;;7.60;;
44276;SDS011;29973;43.742;1.236;2023-06-14T06:19:51;17.65;;;7.55;;
44276;SDS011;29973;43.742;1.236;2023-06-14T06:22:17;17.67;;;7.55;;
44276;SDS011;29973;43.742;1.236;2023-06-14T06:24:42;15.35;;;7.30;;
44276;SDS011;29973;43.742;1.236;2023-06-14T06:27:08;16.63;;;7.47;;
44276;SDS011;29973;43.742;1.236;2023-06-14T06:29:34;28.27;;;13.60;;
44276;SDS011;29973;43.742;1.236;2023-06-14T06:32:00;22.98;;;13.40;;
44276;SDS011;29973;43.742;1.236;2023-06-14T06:34:26;28.25;;;14.63;;
44276;SDS011;29973;43.742;1.236;2023-06-14T06:36:52;32.47;;;15.75;;
44276;SDS011;29973;43.742;1.236;2023-06-14T06:39:18;32.70;;;15.98;;
44276;SDS011;29973;43.742;1.236;2023-06-14T06:41:44;22.73;;;14.93;;
44276;SDS011;29973;43.742;1.236;2023-06-14T06:44:10;26.85;;;15.48;;
44276;SDS011;29973;43.742;1.236;2023-06-14T06:46:36;30.38;;;16.27;;
44276;SDS011;29973;43.742;1.236;2023-06-14T06:49:06;43.13;;;16.23;;
44276;SDS011;29973;43.742;1.236;2023-06-14T06:51:32;28.30;;;16.83;;
44276;SDS011;29973;43.742;1.236;2023-06-14T06:53:59;32.97;;;15.98;;
44276;SDS011;29973;43.742;1.236;2023-06-14T06:56:25;27.55;;;16.55;;
44276;SDS011;29973;43.742;1.236;2023-06-14T06:58:51;26.98;;;16.25;;
44276;SDS011;29973;43.742;1.236;2023-06-14T07:01:17;27.10;;;15.43;;
44276;SDS011;29973;43.742;1.236;2023-06-14T07:03:43;29.05;;;17.42;;
44276;SDS011;29973;43.742;1.236;2023-06-14T07:06:09;28.90;;;15.40;;
44276;SDS011;29973;43.742;1.236;2023-06-14T07:08:35;37.30;;;16.75;;
44276;SDS011;29973;43.742;1.236;2023-06-14T07:11:03;30.60;;;16.77;;
44276;SDS011;29973;43.742;1.236;2023-06-14T07:13:30;31.80;;;16.02;;
44276;SDS011;29973;43.742;1.236;2023-06-14T07:15:59;26.80;;;16.23;;
44276;SDS011;29973;43.742;1.236;2023-06-14T07:18:29;28.88;;;17.60;;
44276;SDS011;29973;43.742;1.236;2023-06-14T07:20:55;31.20;;;16.15;;
44276;SDS011;29973;43.742;1.236;2023-06-14T07:23:22;29.83;;;16.02;;
44276;SDS011;29973;43.742;1.236;2023-06-14T07:25:48;23.80;;;15.85;;
44276;SDS011;29973;43.742;1.236;2023-06-14T07:28:14;22.40;;;14.02;;
44276;SDS011;29973;43.742;1.236;2023-06-14T07:30:42;23.50;;;14.25;;
44276;SDS011;29973;43.742;1.236;2023-06-14T07:33:09;24.85;;;15.85;;
44276;SDS011;29973;43.742;1.236;2023-06-14T07:35:38;29.88;;;16.88;;
44276;SDS011;29973;43.742;1.236;2023-06-14T07:38:07;27.45;;;16.80;;
44276;SDS011;29973;43.742;1.236;2023-06-14T07:40:32;24.15;;;17.00;;
44276;SDS011;29973;43.742;1.236;2023-06-14T07:42:58;24.25;;;16.65;;
44276;SDS011;29973;43.742;1.236;2023-06-14T07:45:25;22.90;;;15.75;;
44276;SDS011;29973;43.742;1.236;2023-06-14T07:47:53;23.33;;;14.13;;
44276;SDS011;29973;43.742;1.236;2023-06-14T07:50:18;28.50;;;16.55;;
44276;SDS011;29973;43.742;1.236;2023-06-14T07:52:45;30.40;;;15.98;;
44276;SDS011;29973;43.742;1.236;2023-06-14T07:55:13;31.23;;;16.17;;
44276;SDS011;29973;43.742;1.236;2023-06-14T07:57:40;28.30;;;15.32;;
44276;SDS011;29973;43.742;1.236;2023-06-14T08:00:07;25.42;;;15.95;;
44276;SDS011;29973;43.742;1.236;2023-06-14T08:02:43;27.15;;;15.00;;
44276;SDS011;29973;43.742;1.236;2023-06-14T08:05:11;25.77;;;13.50;;
44276;SDS011;29973;43.742;1.236;2023-06-14T08:07:38;24.58;;;13.93;;
44276;SDS011;29973;43.742;1.236;2023-06-14T08:10:07;31.90;;;13.88;;
44276;SDS011;29973;43.742;1.236;2023-06-14T08:12:33;23.13;;;13.80;;
44276;SDS011;29973;43.742;1.236;2023-06-14T08:14:59;21.92;;;13.93;;
44276;SDS011;29973;43.742;1.236;2023-06-14T08:17:25;19.88;;;12.50;;
44276;SDS011;29973;43.742;1.236;2023-06-14T08:19:51;25.73;;;13.48;;
44276;SDS011;29973;43.742;1.236;2023-06-14T08:22:22;29.60;;;14.27;;
44276;SDS011;29973;43.742;1.236;2023-06-14T08:24:49;25.33;;;13.38;;
44276;SDS011;29973;43.742;1.236;2023-06-14T08:27:15;25.50;;;13.05;;
44276;SDS011;29973;43.742;1.236;2023-06-14T08:29:41;21.35;;;12.73;;
44276;SDS011;29973;43.742;1.236;2023-06-14T08:32:07;29.35;;;14.05;;
44276;SDS011;29973;43.742;1.236;2023-06-14T08:34:33;19.90;;;12.82;;
44276;SDS011;29973;43.742;1.236;2023-06-14T08:36:59;28.55;;;14.02;;
44276;SDS011;29973;43.742;1.236;2023-06-14T08:39:25;25.58;;;13.38;;
44276;SDS011;29973;43.742;1.236;2023-06-14T08:41:51;20.85;;;13.40;;
44276;SDS011;29973;43.742;1.236;2023-06-14T08:44:19;21.73;;;12.52;;
44276;SDS011;29973;43.742;1.236;2023-06-14T08:46:44;30.52;;;12.85;;
44276;SDS011;29973;43.742;1.236;2023-06-14T08:49:13;21.05;;;12.05;;
44276;SDS011;29973;43.742;1.236;2023-06-14T08:51:44;22.98;;;12.25;;
44276;SDS011;29973;43.742;1.236;2023-06-14T08:54:12;25.98;;;12.73;;
44276;SDS011;29973;43.742;1.236;2023-06-14T08:56:39;27.55;;;12.27;;
44276;SDS011;29973;43.742;1.236;2023-06-14T08:59:06;23.73;;;11.98;;
44276;SDS011;29973;43.742;1.236;2023-06-14T09:01:36;20.10;;;10.68;;
44276;SDS011;29973;43.742;1.236;2023-06-14T09:04:04;20.30;;;12.77;;
44276;SDS011;29973;43.742;1.236;2023-06-14T09:06:34;18.70;;;11.57;;
44276;SDS011;29973;43.742;1.236;2023-06-14T09:09:01;20.50;;;11.63;;
44276;SDS011;29973;43.742;1.236;2023-06-14T09:11:34;20.92;;;12.15;;
44276;SDS011;29973;43.742;1.236;2023-06-14T09:14:01;23.42;;;12.50;;
44276;SDS011;29973;43.742;1.236;2023-06-14T09:16:27;29.63;;;12.43;;
44276;SDS011;29973;43.742;1.236;2023-06-14T09:18:53;24.83;;;10.65;;
44276;SDS011;29973;43.742;1.236;2023-06-14T09:21:19;17.90;;;11.77;;
44276;SDS011;29973;43.742;1.236;2023-06-14T09:23:47;17.70;;;11.20;;
44276;SDS011;29973;43.742;1.236;2023-06-14T09:26:14;19.70;;;12.70;;
44276;SDS011;29973;43.742;1.236;2023-06-14T09:28:46;19.73;;;11.35;;
44276;SDS011;29973;43.742;1.236;2023-06-14T09:31:13;22.70;;;11.98;;
44276;SDS011;29973;43.742;1.236;2023-06-14T09:33:44;21.92;;;11.27;;
44276;SDS011;29973;43.742;1.236;2023-06-14T09:36:14;18.27;;;9.90;;
44276;SDS011;29973;43.742;1.236;2023-06-14T09:38:55;22.70;;;10.48;;
44276;SDS011;29973;43.742;1.236;2023-06-14T09:41:35;17.27;;;10.73;;
44276;SDS011;29973;43.742;1.236;2023-06-14T09:44:03;19.02;;;10.35;;
44276;SDS011;29973;43.742;1.236;2023-06-14T09:46:30;20.42;;;10.27;;
44276;SDS011;29973;43.742;1.236;2023-06-14T09:49:00;18.02;;;9.68;;
44276;SDS011;29973;43.742;1.236;2023-06-14T09:51:27;16.13;;;9.48;;
44276;SDS011;29973;43.742;1.236;2023-06-14T09:53:55;17.60;;;10.07;;
44276;SDS011;29973;43.742;1.236;2023-06-14T09:56:29;15.30;;;9.20;;
44276;SDS011;29973;43.742;1.236;2023-06-14T09:58:59;13.55;;;9.07;;
44276;SDS011;29973;43.742;1.236;2023-06-14T10:01:25;18.27;;;9.30;;
44276;SDS011;29973;43.742;1.236;2023-06-14T10:04:05;13.90;;;9.32;;
44276;SDS011;29973;43.742;1.236;2023-06-14T10:06:32;16.55;;;10.50;;
44276;SDS011;29973;43.742;1.236;2023-06-14T10:09:05;16.40;;;9.10;;
44276;SDS011;29973;43.742;1.236;2023-06-14T10:11:35;19.73;;;9.45;;
44276;SDS011;29973;43.742;1.236;2023-06-14T10:14:02;17.13;;;9.18;;
44276;SDS011;29973;43.742;1.236;2023-06-14T10:16:31;17.38;;;10.27;;
44276;SDS011;29973;43.742;1.236;2023-06-14T10:19:22;11.77;;;9.45;;
44276;SDS011;29973;43.742;1.236;2023-06-14T10:24:40;21.20;;;8.90;;
44276;SDS011;29973;43.742;1.236;2023-06-14T10:27:11;15.98;;;9.27;;
44276;SDS011;29973;43.742;1.236;2023-06-14T10:32:23;19.80;;;9.80;;
44276;SDS011;29973;43.742;1.236;2023-06-14T10:35:07;16.45;;;8.73;;
44276;SDS011;29973;43.742;1.236;2023-06-14T10:37:34;15.75;;;9.00;;
44276;SDS011;29973;43.742;1.236;2023-06-14T10:40:00;14.05;;;8.35;;
44276;SDS011;29973;43.742;1.236;2023-06-14T10:42:32;19.85;;;9.60;;
44276;SDS011;29973;43.742;1.236;2023-06-14T10:44:58;18.73;;;8.85;;
44276;SDS011;29973;43.742;1.236;2023-06-14T10:47:34;11.43;;;8.52;;
44276;SDS011;29973;43.742;1.236;2023-06-14T10:52:28;16.10;;;8.70;;
44276;SDS011;29973;43.742;1.236;2023-06-14T10:54:56;15.52;;;9.40;;
44276;SDS011;29973;43.742;1.236;2023-06-14T10:57:41;15.73;;;8.57;;
44276;SDS011;29973;43.742;1.236;2023-06-14T11:00:24;16.77;;;8.38;;
44276;SDS011;29973;43.742;1.236;2023-06-14T11:02:52;17.33;;;8.35;;
44276;SDS011;29973;43.742;1.236;2023-06-14T11:05:49;21.20;;;8.48;;
44276;SDS011;29973;43.742;1.236;2023-06-14T11:11:07;13.15;;;8.50;;
44276;SDS011;29973;43.742;1.236;2023-06-14T11:13:36;12.70;;;8.57;;
44276;SDS011;29973;43.742;1.236;2023-06-14T11:16:14;15.18;;;9.00;;
44276;SDS011;29973;43.742;1.236;2023-06-14T11:18:41;15.48;;;9.20;;
44276;SDS011;29973;43.742;1.236;2023-06-14T11:21:09;16.20;;;8.77;;
44276;SDS011;29973;43.742;1.236;2023-06-14T11:23:35;15.88;;;8.88;;
44276;SDS011;29973;43.742;1.236;2023-06-14T11:26:01;17.33;;;7.60;;
44276;SDS011;29973;43.742;1.236;2023-06-14T11:28:40;13.25;;;8.00;;
44276;SDS011;29973;43.742;1.236;2023-06-14T11:31:06;14.02;;;8.55;;
44276;SDS011;29973;43.742;1.236;2023-06-14T11:33:33;17.77;;;8.07;;
44276;SDS011;29973;43.742;1.236;2023-06-14T11:36:01;12.52;;;8.07;;
44276;SDS011;29973;43.742;1.236;2023-06-14T11:38:29;10.77;;;8.15;;
44276;SDS011;29973;43.742;1.236;2023-06-14T11:40:58;19.48;;;8.82;;
44276;SDS011;29973;43.742;1.236;2023-06-14T11:43:25;12.40;;;8.18;;
44276;SDS011;29973;43.742;1.236;2023-06-14T11:45:52;15.55;;;8.07;;
44276;SDS011;29973;43.742;1.236;2023-06-14T11:48:18;14.75;;;7.78;;
44276;SDS011;29973;43.742;1.236;2023-06-14T11:50:44;12.07;;;7.95;;
44276;SDS011;29973;43.742;1.236;2023-06-14T11:53:16;10.02;;;7.55;;
44276;SDS011;29973;43.742;1.236;2023-06-14T11:55:42;14.77;;;8.50;;
44276;SDS011;29973;43.742;1.236;2023-06-14T11:58:10;14.77;;;7.82;;
44276;SDS011;29973;43.742;1.236;2023-06-14T12:00:36;11.45;;;7.65;;
44276;SDS011;29973;43.742;1.236;2023-06-14T12:03:02;21.23;;;8.80;;
44276;SDS011;29973;43.742;1.236;2023-06-14T12:05:28;18.85;;;8.55;;
44276;SDS011;29973;43.742;1.236;2023-06-14T12:08:01;15.75;;;8.30;;
44276;SDS011;29973;43.742;1.236;2023-06-14T12:10:28;13.35;;;8.00;;
44276;SDS011;29973;43.742;1.236;2023-06-14T12:12:58;15.55;;;8.23;;
44276;SDS011;29973;43.742;1.236;2023-06-14T12:15:24;13.98;;;8.20;;
44276;SDS011;29973;43.742;1.236;2023-06-14T12:17:53;15.73;;;7.95;;
44276;SDS011;29973;43.742;1.236;2023-06-14T12:20:19;15.90;;;7.55;;
44276;SDS011;29973;43.742;1.236;2023-06-14T12:22:50;12.60;;;8.23;;
44276;SDS011;29973;43.742;1.236;2023-06-14T12:25:30;13.07;;;8.18;;
44276;SDS011;29973;43.742;1.236;2023-06-14T12:28:04;13.02;;;7.50;;
44276;SDS011;29973;43.742;1.236;2023-06-14T12:30:31;13.65;;;7.70;;
44276;SDS011;29973;43.742;1.236;2023-06-14T12:32:57;10.38;;;6.70;;
44276;SDS011;29973;43.742;1.236;2023-06-14T12:35:23;11.43;;;7.13;;
44276;SDS011;29973;43.742;1.236;2023-06-14T12:37:48;11.23;;;7.20;;
44276;SDS011;29973;43.742;1.236;2023-06-14T12:40:14;16.83;;;8.10;;
44276;SDS011;29973;43.742;1.236;2023-06-14T12:42:41;10.88;;;7.47;;
44276;SDS011;29973;43.742;1.236;2023-06-14T12:45:09;10.68;;;7.03;;
44276;SDS011;29973;43.742;1.236;2023-06-14T12:47:41;11.60;;;7.03;;
44276;SDS011;29973;43.742;1.236;2023-06-14T12:50:11;13.65;;;7.13;;
44276;SDS011;29973;43.742;1.236;2023-06-14T12:52:37;13.80;;;7.57;;
44276;SDS011;29973;43.742;1.236;2023-06-14T12:55:06;15.18;;;7.22;;
44276;SDS011;29973;43.742;1.236;2023-06-14T12:57:31;13.02;;;6.95;;
44276;SDS011;29973;43.742;1.236;2023-06-14T13:00:00;10.60;;;7.25;;
44276;SDS011;29973;43.742;1.236;2023-06-14T13:02:32;11.48;;;7.65;;
44276;SDS011;29973;43.742;1.236;2023-06-14T13:04:58;13.00;;;7.32;;
44276;SDS011;29973;43.742;1.236;2023-06-14T13:07:25;9.10;;;6.90;;
44276;SDS011;29973;43.742;1.236;2023-06-14T13:09:51;14.90;;;7.45;;
44276;SDS011;29973;43.742;1.236;2023-06-14T13:12:16;11.88;;;6.53;;
44276;SDS011;29973;43.742;1.236;2023-06-14T13:14:42;8.30;;;7.50;;
44276;SDS011;29973;43.742;1.236;2023-06-14T13:17:08;14.32;;;7.63;;
44276;SDS011;29973;43.742;1.236;2023-06-14T13:19:35;10.00;;;7.57;;
44276;SDS011;29973;43.742;1.236;2023-06-14T13:22:01;14.95;;;7.88;;
44276;SDS011;29973;43.742;1.236;2023-06-14T13:24:27;12.38;;;7.68;;
44276;SDS011;29973;43.742;1.236;2023-06-14T13:26:54;14.07;;;7.93;;
44276;SDS011;29973;43.742;1.236;2023-06-14T13:29:20;10.27;;;7.80;;
44276;SDS011;29973;43.742;1.236;2023-06-14T13:31:46;13.93;;;7.45;;
44276;SDS011;29973;43.742;1.236;2023-06-14T13:34:12;11.02;;;6.63;;
44276;SDS011;29973;43.742;1.236;2023-06-14T13:36:37;12.25;;;7.60;;
44276;SDS011;29973;43.742;1.236;2023-06-14T13:39:04;12.65;;;7.25;;
44276;SDS011;29973;43.742;1.236;2023-06-14T13:41:30;13.93;;;8.23;;
44276;SDS011;29973;43.742;1.236;2023-06-14T13:43:58;13.43;;;7.07;;
44276;SDS011;29973;43.742;1.236;2023-06-14T13:46:24;15.48;;;7.70;;
44276;SDS011;29973;43.742;1.236;2023-06-14T13:48:50;11.65;;;7.75;;
44276;SDS011;29973;43.742;1.236;2023-06-14T13:51:17;11.30;;;7.35;;
44276;SDS011;29973;43.742;1.236;2023-06-14T13:53:53;12.77;;;7.60;;
44276;SDS011;29973;43.742;1.236;2023-06-14T13:56:20;9.77;;;6.95;;
44276;SDS011;29973;43.742;1.236;2023-06-14T13:58:47;13.57;;;7.97;;
44276;SDS011;29973;43.742;1.236;2023-06-14T14:01:13;12.98;;;8.07;;
44276;SDS011;29973;43.742;1.236;2023-06-14T14:03:39;11.15;;;7.75;;
44276;SDS011;29973;43.742;1.236;2023-06-14T14:06:05;13.43;;;7.47;;
44276;SDS011;29973;43.742;1.236;2023-06-14T14:08:32;14.88;;;8.35;;
44276;SDS011;29973;43.742;1.236;2023-06-14T14:10:58;15.27;;;7.47;;
44276;SDS011;29973;43.742;1.236;2023-06-14T14:13:24;11.07;;;7.03;;
44276;SDS011;29973;43.742;1.236;2023-06-14T14:15:50;14.55;;;8.10;;
44276;SDS011;29973;43.742;1.236;2023-06-14T14:18:16;10.60;;;8.20;;
44276;SDS011;29973;43.742;1.236;2023-06-14T14:20:42;11.00;;;7.95;;
44276;SDS011;29973;43.742;1.236;2023-06-14T14:23:07;12.07;;;6.22;;
44276;SDS011;29973;43.742;1.236;2023-06-14T14:25:33;18.05;;;7.93;;
44276;SDS011;29973;43.742;1.236;2023-06-14T14:27:59;10.68;;;7.30;;
44276;SDS011;29973;43.742;1.236;2023-06-14T14:30:25;13.80;;;7.45;;
44276;SDS011;29973;43.742;1.236;2023-06-14T14:32:50;13.40;;;7.20;;
44276;SDS011;29973;43.742;1.236;2023-06-14T14:35:17;12.70;;;6.93;;
44276;SDS011;29973;43.742;1.236;2023-06-14T14:37:44;14.82;;;7.60;;
44276;SDS011;29973;43.742;1.236;2023-06-14T14:40:11;14.52;;;7.25;;
44276;SDS011;29973;43.742;1.236;2023-06-14T14:42:37;11.00;;;7.20;;
44276;SDS011;29973;43.742;1.236;2023-06-14T14:45:03;17.42;;;6.85;;
44276;SDS011;29973;43.742;1.236;2023-06-14T14:47:29;13.82;;;7.40;;
44276;SDS011;29973;43.742;1.236;2023-06-14T14:49:55;13.77;;;7.82;;
44276;SDS011;29973;43.742;1.236;2023-06-14T14:52:20;9.95;;;7.05;;
44276;SDS011;29973;43.742;1.236;2023-06-14T14:54:46;11.65;;;7.30;;